createdAt,value
2022-08-18T00:01:43.474Z,4.18
2022-08-18T00:06:50.633Z,4.22
2022-08-18T00:11:55.282Z,4.22
2022-08-18T00:16:59.855Z,3.05
2022-08-18T00:22:07.613Z,5.57
2022-08-18T00:27:13.583Z,4.65
2022-08-18T00:32:20.027Z,4.85
2022-08-18T00:37:27.701Z,2.47
2022-08-18T00:42:33.540Z,3.78
2022-08-18T00:47:43.104Z,2.22
2022-08-18T00:52:56.239Z,5.20
2022-08-18T00:58:06.697Z,5.05
2022-08-18T01:03:15.633Z,4.83
2022-08-18T01:08:32.421Z,2.15
2022-08-18T01:13:39.351Z,6.30
2022-08-18T01:18:56.387Z,8.50
2022-08-18T01:24:06.280Z,8.75
2022-08-18T01:29:18.956Z,3.90
2022-08-18T01:34:26.685Z,2.92
2022-08-18T01:41:00.951Z,2.83
2022-08-18T01:44:58.422Z,5.22
2022-08-18T01:50:03.475Z,2.10
2022-08-18T01:55:11.506Z,2.20
2022-08-18T02:00:21.496Z,3.55
2022-08-18T02:05:34.645Z,2.53
2022-08-18T02:10:43.168Z,6.03
2022-08-18T02:15:47.704Z,4.03
2022-08-18T02:20:52.499Z,5.07
2022-08-18T02:26:00.218Z,1.88
2022-08-18T02:31:08.175Z,3.58
2022-08-18T02:36:17.138Z,5.30
2022-08-18T02:41:26.226Z,4.47
2022-08-18T02:46:33.865Z,4.32
2022-08-18T02:51:39.086Z,4.63
2022-08-18T02:56:47.192Z,3.58
2022-08-18T03:01:54.366Z,5.63
2022-08-18T03:07:00.761Z,3.45
2022-08-18T03:12:13.947Z,3.08
2022-08-18T03:17:18.644Z,6.68
2022-08-18T03:22:28.300Z,3.60
2022-08-18T03:27:36.858Z,6.47
2022-08-18T03:32:41.455Z,4.45
2022-08-18T03:37:50.745Z,4.90
2022-08-18T03:42:58.872Z,3.35
2022-08-18T03:53:12.196Z,4.10
2022-08-18T03:58:19.476Z,5.03
2022-08-18T04:03:24.355Z,5.97
2022-08-18T04:08:29.207Z,7.10
2022-08-18T04:13:39.460Z,6.18
2022-08-18T04:18:44.627Z,5.75
2022-08-18T04:23:49.131Z,3.42
2022-08-18T04:28:56.396Z,4.30
2022-08-18T04:34:03.584Z,5.57
2022-08-18T04:39:11.030Z,3.40
2022-08-18T04:44:19.140Z,4.95
2022-08-18T04:49:26.389Z,8.65
2022-08-18T04:54:31.256Z,6.85
2022-08-18T04:59:38.689Z,5.15
2022-08-18T05:04:47.233Z,4.60
2022-08-18T05:09:55.132Z,4.93
2022-08-18T05:15:03.109Z,3.55
2022-08-18T05:20:09.343Z,4.50
2022-08-18T05:25:16.314Z,4.85
2022-08-18T05:30:23.837Z,4.25
2022-08-18T05:35:34.454Z,6.85
2022-08-18T05:40:39.463Z,2.77
2022-08-18T05:45:47.178Z,5.00
2022-08-18T05:50:52.312Z,5.38
2022-08-18T05:56:17.260Z,6.15
2022-08-18T06:01:28.326Z,15.77
2022-08-18T06:06:35.657Z,9.60
2022-08-18T06:11:40.212Z,5.93
2022-08-18T06:16:56.345Z,7.35
2022-08-18T06:22:10.507Z,5.68
2022-08-18T06:27:23.997Z,9.18
2022-08-18T06:32:45.304Z,29.10
2022-08-18T06:38:12.900Z,23.08
2022-08-18T06:43:19.847Z,25.20
2022-08-18T06:48:35.142Z,12.57
2022-08-18T06:54:01.561Z,23.50
2022-08-18T06:59:25.810Z,19.25
2022-08-18T07:04:42.455Z,28.58
2022-08-18T07:09:47.538Z,26.00
2022-08-18T07:14:55.175Z,21.75
2022-08-18T07:20:10.414Z,11.43
2022-08-18T07:25:25.112Z,17.40
2022-08-18T07:30:36.784Z,10.07
2022-08-18T07:35:50.530Z,13.02
2022-08-18T07:41:00.826Z,8.77
2022-08-18T07:46:15.851Z,8.10
2022-08-18T07:51:37.129Z,4.72
2022-08-18T07:56:52.596Z,7.22
2022-08-18T08:02:07.142Z,4.82
2022-08-18T08:07:24.413Z,5.35
2022-08-18T08:12:41.285Z,3.42
2022-08-18T08:17:50.819Z,3.92
2022-08-18T08:23:15.209Z,2.13
2022-08-18T08:28:32.990Z,3.65
2022-08-18T08:33:44.619Z,4.68
2022-08-18T08:38:58.366Z,7.07
2022-08-18T08:44:09.261Z,3.47
2022-08-18T08:49:28.846Z,4.13
2022-08-18T08:54:44.119Z,5.65
2022-08-18T08:59:52.854Z,8.25
2022-08-18T09:05:08.692Z,6.72
2022-08-18T09:10:44.049Z,7.50
2022-08-18T09:16:13.810Z,7.57
2022-08-18T09:21:35.277Z,8.40
2022-08-18T09:26:52.791Z,4.40
2022-08-18T09:32:30.548Z,6.85
2022-08-18T09:37:50.283Z,6.10
2022-08-18T09:43:09.010Z,10.90
2022-08-18T09:48:30.483Z,6.82
2022-08-18T09:53:53.657Z,10.15
2022-08-18T09:59:10.982Z,6.18
2022-08-18T10:04:31.224Z,13.82
2022-08-18T10:09:47.421Z,11.90
2022-08-18T10:15:15.310Z,10.88
2022-08-18T10:20:48.528Z,5.97
2022-08-18T10:25:55.193Z,8.45
2022-08-18T10:31:11.206Z,6.40
2022-08-18T10:36:42.076Z,4.47
2022-08-18T10:42:03.200Z,6.43
2022-08-18T10:47:24.825Z,6.35
2022-08-18T11:09:41.113Z,9.55
2022-08-18T11:15:23.091Z,8.57
2022-08-18T11:20:35.570Z,8.65
2022-08-18T11:25:42.159Z,8.00
2022-08-18T11:30:50.342Z,8.50
2022-08-18T11:36:01.687Z,8.70
2022-08-18T11:41:19.356Z,10.80
2022-08-18T11:46:33.503Z,6.45
2022-08-18T11:51:57.561Z,8.75
2022-08-18T11:57:49.306Z,10.63
2022-08-18T12:03:04.389Z,9.13
2022-08-18T12:08:54.499Z,8.60
2022-08-18T12:13:51.776Z,11.45
2022-08-18T12:19:00.871Z,8.85
2022-08-18T12:24:26.178Z,10.77
2022-08-18T12:29:43.282Z,18.52
2022-08-18T12:34:48.778Z,11.82
2022-08-18T12:40:00.478Z,16.02
2022-08-18T12:45:05.146Z,10.65
2022-08-18T12:50:13.423Z,8.90
2022-08-18T12:55:21.643Z,10.48
2022-08-18T13:00:28.126Z,10.10
2022-08-18T13:05:33.665Z,9.07
2022-08-18T13:10:45.386Z,7.00
2022-08-18T13:15:57.749Z,7.32
2022-08-18T13:21:07.173Z,7.38
2022-08-18T13:26:19.583Z,10.43
2022-08-18T13:31:24.798Z,8.63
2022-08-18T13:36:44.517Z,7.68
2022-08-18T13:41:55.036Z,9.38
2022-08-18T13:47:01.548Z,6.38
2022-08-18T13:52:12.267Z,10.05
2022-08-18T13:57:29.070Z,11.40
2022-08-18T14:02:34.627Z,7.90
2022-08-18T14:07:39.270Z,7.18
2022-08-18T14:12:49.739Z,8.50
2022-08-18T14:17:54.747Z,6.78
2022-08-18T14:23:14.608Z,7.90
2022-08-18T14:28:29.647Z,7.30
2022-08-18T14:33:50.902Z,16.33
2022-08-18T14:38:57.719Z,6.70
2022-08-18T14:44:13.522Z,5.47
2022-08-18T14:49:29.328Z,5.70
2022-08-18T14:54:34.789Z,5.47
2022-08-18T14:59:42.289Z,4.93
2022-08-18T15:04:52.991Z,5.65
2022-08-18T15:10:15.207Z,5.80
2022-08-18T15:15:24.910Z,7.70
2022-08-18T15:20:30.360Z,6.25
2022-08-18T15:25:44.949Z,6.47
2022-08-18T15:36:24.082Z,5.35
2022-08-18T15:41:44.167Z,5.15
2022-08-18T15:46:55.765Z,6.65
2022-08-18T15:52:01.311Z,4.38
2022-08-18T15:57:06.364Z,4.57
2022-08-18T16:02:19.246Z,4.80
2022-08-18T16:07:25.167Z,8.15
2022-08-18T16:12:46.526Z,6.80
2022-08-18T16:17:56.721Z,6.10
2022-08-18T16:23:01.437Z,5.50
2022-08-18T16:28:07.125Z,6.10
2022-08-18T16:33:14.385Z,7.22
2022-08-18T16:38:19.396Z,4.30
2022-08-18T16:43:24.053Z,4.88
2022-08-18T16:48:32.935Z,5.50
2022-08-18T16:53:39.774Z,8.80
2022-08-18T16:58:57.902Z,5.25
2022-08-18T17:04:14.781Z,7.70
2022-08-18T17:09:27.807Z,6.15
2022-08-18T17:14:37.377Z,6.93
2022-08-18T17:19:44.762Z,7.20
2022-08-18T17:24:51.699Z,6.13
2022-08-18T17:30:04.250Z,8.60
2022-08-18T17:35:20.333Z,5.28
2022-08-18T17:40:32.660Z,5.57
2022-08-18T17:45:38.709Z,6.00
2022-08-18T17:51:03.163Z,6.65
2022-08-18T17:56:12.653Z,5.43
2022-08-18T18:01:18.177Z,6.28
2022-08-18T18:06:33.647Z,9.15
2022-08-18T18:11:42.208Z,6.68
2022-08-18T18:16:46.962Z,6.15
2022-08-18T18:22:07.057Z,6.45
2022-08-18T18:27:31.108Z,5.82
2022-08-18T18:32:38.720Z,8.38
2022-08-18T18:37:49.477Z,5.00
2022-08-18T18:42:54.456Z,8.13
2022-08-18T18:48:06.985Z,6.13
2022-08-18T18:53:25.446Z,6.07
2022-08-18T18:58:42.647Z,9.05
2022-08-18T19:03:50.382Z,5.88
2022-08-18T19:09:08.561Z,5.28
2022-08-18T19:14:17.896Z,9.02
2022-08-18T19:19:38.045Z,9.15
2022-08-18T19:24:57.022Z,6.47
2022-08-18T19:30:06.776Z,5.78
2022-08-18T19:35:19.619Z,5.60
2022-08-18T19:40:32.266Z,6.88
2022-08-18T19:45:44.743Z,5.63
2022-08-18T19:50:55.957Z,5.88
2022-08-18T20:01:33.483Z,5.20
2022-08-18T20:07:05.934Z,5.28
2022-08-18T20:12:23.944Z,5.07
2022-08-18T20:17:28.666Z,5.70
2022-08-18T20:22:39.176Z,4.75
2022-08-18T20:27:47.614Z,5.73
2022-08-18T20:33:11.151Z,5.40
2022-08-18T20:38:20.861Z,6.03
2022-08-18T20:43:35.045Z,5.40
2022-08-18T20:49:06.065Z,6.55
2022-08-18T20:54:29.929Z,5.78
2022-08-18T20:59:40.926Z,5.60
2022-08-18T21:04:52.125Z,6.60
2022-08-18T21:10:12.242Z,5.57
2022-08-18T21:15:20.608Z,7.90
2022-08-18T21:20:27.149Z,4.70
2022-08-18T21:25:32.811Z,6.72
2022-08-18T21:30:39.919Z,5.47
2022-08-18T21:35:44.760Z,5.38
2022-08-18T21:40:52.174Z,6.10
2022-08-18T21:46:00.343Z,5.60
2022-08-18T21:51:06.966Z,5.55
2022-08-18T21:56:23.235Z,5.25
2022-08-18T22:01:31.736Z,5.68
2022-08-18T22:06:42.054Z,5.57
2022-08-18T22:12:01.047Z,5.78
2022-08-18T22:17:43.177Z,5.35
2022-08-18T22:23:00.651Z,5.00
2022-08-18T22:28:05.855Z,5.53
2022-08-18T22:33:13.466Z,6.28
2022-08-18T22:38:19.254Z,6.82
2022-08-18T22:43:24.097Z,6.95
2022-08-18T22:48:31.543Z,8.07
2022-08-18T22:53:37.271Z,6.97
2022-08-18T22:58:42.806Z,7.03
2022-08-18T23:03:52.424Z,7.97
2022-08-18T23:08:57.018Z,8.23
2022-08-18T23:14:03.579Z,9.27
2022-08-18T23:19:10.815Z,10.70
2022-08-18T23:24:17.282Z,11.82
2022-08-18T23:29:23.245Z,11.65
2022-08-18T23:34:30.657Z,11.35
2022-08-18T23:39:38.749Z,10.70
2022-08-18T23:44:44.068Z,9.45
2022-08-18T23:49:51.588Z,14.40
2022-08-18T23:54:56.706Z,12.10
